Marian S Heiskell — WDD7538 — position and weather

sailwx.info

Track history (hours):
 
Tides and Currents Weather Stations Pressure Air Temp Water Temp Dewpoint Dewpoint Depression Visibility Wind Speed Wind Dir Waves Ship Positions

Marian S Heiskell

Owner: NYCL Acquisition LLC, Brooklyn, NY. More information available from US FCC via Universal Licensing System and Coast Guard Vessel Documentation Center.

Last reported at 2017-Dec-10 21:39 UTC. Time now 2017-Dec-11 02:29 UTC.
Position N 40°42' W 074°00'.

Length 20 m.

Type: Passenger vessel. MMSI: 367187770.

Date/timePositionNaut miles runAvg speedWind from/ knotsBaromVisibWave heightAir tempDewpointWater temp
2017-Dec-10 21:39N 40°42' W 074°00'0 3.1
2017-Dec-10 21:30N 40°42' W 073°60'1 2.7
2017-Dec-10 21:01N 40°43' W 074°01'2 3.9
2017-Dec-10 20:30N 40°41' W 074°02'1 3.0
2017-Dec-10 20:01N 40°42' W 074°01'1 1.1
2017-Dec-10 19:31N 40°42' W 074°02'1 2.5
2017-Dec-10 18:59N 40°42' W 074°00'3 6.8
2017-Dec-10 18:29N 40°46' W 074°00'3 6.9
2017-Dec-10 17:59N 40°42' W 073°60'1 3.1
2017-Dec-10 17:30N 40°43' W 074°01'2 3.4
2017-Dec-10 16:58N 40°42' W 074°02'1 1.8
2017-Dec-10 16:24N 40°42' W 074°01'1 2.3
2017-Dec-10 16:00N 40°43' W 074°01'1 2.1
2017-Dec-10 15:23N 40°42' W 074°01'4 9.9
2017-Dec-10 15:00N 40°46' W 074°00'4 0.3
2017-Dec-09 23:32N 40°42' W 074°01'021.6
2017-Dec-09 23:31N 40°42' W 074°01'2 3.6
2017-Dec-09 23:00N 40°44' W 074°01'2 2.6
2017-Dec-09 22:20N 40°42' W 074°01'3 9.8
2017-Dec-09 21:58N 40°46' W 074°00'4 5.0
2017-Dec-09 21:15N 40°42' W 074°01'412.5
2017-Dec-09 20:58N 40°46' W 074°00'3 4.0
2017-Dec-09 20:07N 40°42' W 074°01'322.7
2017-Dec-09 20:00N 40°45' W 074°01'3 7.0
2017-Dec-09 19:30N 40°42' W 074°02'1 1.0
2017-Dec-09 18:52N 40°42' W 074°01'410.0
2017-Dec-09 18:31N 40°46' W 074°00'3 6.3
2017-Dec-09 17:58N 40°42' W 073°60'2 4.4
2017-Dec-09 17:31N 40°44' W 074°01'3 5.0
2017-Dec-09 16:59N 40°41' W 074°02'1 2.8
2017-Dec-09 16:30N 40°42' W 074°01'1 2.2
2017-Dec-09 16:00N 40°43' W 074°01'1 2.4
2017-Dec-09 15:27N 40°42' W 074°00'3 7.4
2017-Dec-09 15:00N 40°46' W 074°00'5 0.4
2017-Dec-08 23:53N 40°40' W 074°01'2 5.1
2017-Dec-08 23:30N 40°42' W 074°01'1 2.7
2017-Dec-08 23:00N 40°43' W 074°01'2 3.0
2017-Dec-08 22:30N 40°42' W 074°00'3 6.8
2017-Dec-08 22:00N 40°46' W 074°00'3 6.7
2017-Dec-08 21:29N 40°42' W 073°60'2 3.8
2017-Dec-08 21:00N 40°44' W 074°01'2 4.8
2017-Dec-08 20:30N 40°41' W 074°02'1 2.4
2017-Dec-08 19:59N 40°42' W 074°01'1 1.1
2017-Dec-08 19:31N 40°43' W 074°02'1 2.3
2017-Dec-08 18:59N 40°42' W 074°00'3 6.8
2017-Dec-08 18:30N 40°46' W 074°00'3 7.0
2017-Dec-08 18:00N 40°42' W 073°60'2 4.0
2017-Dec-08 17:30N 40°44' W 074°01'3 5.3
2017-Dec-08 17:00N 40°41' W 074°02'1 2.2
2017-Dec-08 16:30N 40°42' W 074°01'1 2.8
2017-Dec-08 16:00N 40°44' W 074°01'2 2.9
2017-Dec-08 15:26N 40°42' W 074°00'3 7.5
2017-Dec-08 15:00N 40°46' W 074°00'5 2.0
2017-Dec-08 12:17N 40°40' W 074°01'0 0.0
2017-Dec-07 23:54N 40°40' W 074°01'2 4.7
2017-Dec-07 23:31N 40°42' W 074°01'1 1.1
2017-Dec-07 23:00N 40°43' W 074°02'1 2.2
2017-Dec-07 22:29N 40°42' W 074°00'3 7.2
2017-Dec-07 22:00N 40°46' W 074°00'4 7.1
2017-Dec-07 21:30N 40°42' W 073°60'2 3.1
2017-Dec-07 21:01N 40°43' W 074°01'2 4.6
2017-Dec-07 20:30N 40°41' W 074°03'2 3.0
2017-Dec-07 20:00N 40°42' W 074°01'1 1.7
2017-Dec-07 19:30N 40°42' W 074°02'2 3.7
2017-Dec-07 18:58N 40°42' W 073°60'3 7.2
2017-Dec-07 18:31N 40°46' W 074°00'3 6.8
2017-Dec-07 18:00N 40°42' W 073°60'3 6.5
2017-Dec-07 17:29N 40°45' W 074°01'4 7.7
2017-Dec-07 17:00N 40°42' W 074°01'2 4.6
2017-Dec-07 16:30N 40°44' W 074°01'3 5.7
2017-Dec-07 16:00N 40°41' W 074°02'1 2.5
2017-Dec-07 15:30N 40°42' W 074°01'1 1.1
2017-Dec-07 15:00N 40°42' W 074°02'2 0.1
2017-Dec-07 01:30N 40°40' W 074°01'5 6.6
2017-Dec-07 00:49N 40°44' W 073°58'618.7
2017-Dec-07 00:30N 40°39' W 074°02'611.1
2017-Dec-06 23:57N 40°44' W 073°58'612.8
2017-Dec-06 23:30N 40°39' W 074°02'4 9.0
2017-Dec-06 23:00N 40°43' W 073°58'4 7.1
2017-Dec-06 22:30N 40°40' W 074°01'3 5.6
2017-Dec-06 22:00N 40°42' W 073°59'4 8.1
2017-Dec-06 21:31N 40°39' W 074°02'  
2017-Dec-03 20:40N 40°40' W 074°01'1 6.9
2017-Dec-03 20:30N 40°41' W 074°01'3 5.4
2017-Dec-03 20:00N 40°44' W 074°01'1 2.8
2017-Dec-03 19:30N 40°43' W 074°02'1 2.1
2017-Dec-03 18:57N 40°42' W 074°00'3 7.6
2017-Dec-03 18:30N 40°46' W 074°00'3 6.8
2017-Dec-03 17:59N 40°42' W 073°60'3 5.1
2017-Dec-03 17:30N 40°45' W 074°01'4 7.0
2017-Dec-03 16:59N 40°41' W 074°03'1 3.1
2017-Dec-03 16:30N 40°42' W 074°01'1 2.6
2017-Dec-03 16:01N 40°44' W 074°01'2 3.0
2017-Dec-03 15:30N 40°42' W 074°00'3 6.8
2017-Dec-03 15:00N 40°46' W 074°00'5 0.3
2017-Dec-02 23:23N 40°40' W 074°01'2 5.6
2017-Dec-02 23:00N 40°42' W 074°00'2 4.0
2017-Dec-02 22:30N 40°41' W 074°02'2 2.3
2017-Dec-02 21:36N 40°42' W 074°00'1 5.4
2017-Dec-02 21:29N 40°42' W 074°01'1 1.1
2017-Dec-02 20:58N 40°42' W 074°00'1 1.6
2017-Dec-02 20:30N 40°42' W 074°01'1 2.3
2017-Dec-02 20:00N 40°41' W 074°01'1 2.3
2017-Dec-02 19:30N 40°41' W 074°02'2 4.1
2017-Dec-02 19:00N 40°42' W 074°00'0 0.0
2017-Dec-02 18:29N 40°42' W 074°00'2 4.7
2017-Dec-02 18:00N 40°41' W 074°03'2 4.2
2017-Dec-02 17:28N 40°42' W 074°00'1 2.1
2017-Dec-02 16:58N 40°42' W 073°59'3 5.6
2017-Dec-02 16:30N 40°42' W 074°02'1 2.5
2017-Dec-02 16:00N 40°42' W 074°00'1 0.0
2017-Dec-01 01:51N 40°40' W 074°01'2 5.7
2017-Dec-01 01:29N 40°42' W 074°00'1 3.0
2017-Dec-01 01:00N 40°42' W 074°02'1 2.8
2017-Dec-01 00:29N 40°42' W 074°00'0 0.0
2017-Dec-01 00:00N 40°42' W 074°00'1 1.5
2017-Nov-30 23:30N 40°42' W 074°01'2 3.2
2017-Nov-30 23:00N 40°44' W 074°01'2 3.1
2017-Nov-30 22:23N 40°42' W 074°01'4 9.9
2017-Nov-30 22:00N 40°46' W 074°00'  
Track history (hours):
 
Tides and Currents Weather Stations Pressure Air Temp Water Temp Dewpoint Dewpoint Depression Visibility Wind Speed Wind Dir Waves Ship Positions

Marian S Heiskell

Owner: NYCL Acquisition LLC, Brooklyn, NY. More information available from US FCC via Universal Licensing System and Coast Guard Vessel Documentation Center.

Last reported at 2017-Dec-10 21:39 UTC. Time now 2017-Dec-11 02:29 UTC.
Position N 40°42' W 074°00'.

Length 20 m.

Type: Passenger vessel. MMSI: 367187770.

Date/timePositionNaut miles runAvg speedWind from/ knotsBaromVisibWave heightAir tempDewpointWater temp
2017-Dec-10 21:39N 40°42' W 074°00'0 3.1
2017-Dec-10 21:30N 40°42' W 073°60'1 2.7
2017-Dec-10 21:01N 40°43' W 074°01'2 3.9
2017-Dec-10 20:30N 40°41' W 074°02'1 3.0
2017-Dec-10 20:01N 40°42' W 074°01'1 1.1
2017-Dec-10 19:31N 40°42' W 074°02'1 2.5
2017-Dec-10 18:59N 40°42' W 074°00'3 6.8
2017-Dec-10 18:29N 40°46' W 074°00'3 6.9
2017-Dec-10 17:59N 40°42' W 073°60'1 3.1
2017-Dec-10 17:30N 40°43' W 074°01'2 3.4
2017-Dec-10 16:58N 40°42' W 074°02'1 1.8
2017-Dec-10 16:24N 40°42' W 074°01'1 2.3
2017-Dec-10 16:00N 40°43' W 074°01'1 2.1
2017-Dec-10 15:23N 40°42' W 074°01'4 9.9
2017-Dec-10 15:00N 40°46' W 074°00'4 0.3
2017-Dec-09 23:32N 40°42' W 074°01'021.6
2017-Dec-09 23:31N 40°42' W 074°01'2 3.6
2017-Dec-09 23:00N 40°44' W 074°01'2 2.6
2017-Dec-09 22:20N 40°42' W 074°01'3 9.8
2017-Dec-09 21:58N 40°46' W 074°00'4 5.0
2017-Dec-09 21:15N 40°42' W 074°01'412.5
2017-Dec-09 20:58N 40°46' W 074°00'3 4.0
2017-Dec-09 20:07N 40°42' W 074°01'322.7
2017-Dec-09 20:00N 40°45' W 074°01'3 7.0
2017-Dec-09 19:30N 40°42' W 074°02'1 1.0
2017-Dec-09 18:52N 40°42' W 074°01'410.0
2017-Dec-09 18:31N 40°46' W 074°00'3 6.3
2017-Dec-09 17:58N 40°42' W 073°60'2 4.4
2017-Dec-09 17:31N 40°44' W 074°01'3 5.0
2017-Dec-09 16:59N 40°41' W 074°02'1 2.8
2017-Dec-09 16:30N 40°42' W 074°01'1 2.2
2017-Dec-09 16:00N 40°43' W 074°01'1 2.4
2017-Dec-09 15:27N 40°42' W 074°00'3 7.4
2017-Dec-09 15:00N 40°46' W 074°00'5 0.4
2017-Dec-08 23:53N 40°40' W 074°01'2 5.1
2017-Dec-08 23:30N 40°42' W 074°01'1 2.7
2017-Dec-08 23:00N 40°43' W 074°01'2 3.0
2017-Dec-08 22:30N 40°42' W 074°00'3 6.8
2017-Dec-08 22:00N 40°46' W 074°00'3 6.7
2017-Dec-08 21:29N 40°42' W 073°60'2 3.8
2017-Dec-08 21:00N 40°44' W 074°01'2 4.8
2017-Dec-08 20:30N 40°41' W 074°02'1 2.4
2017-Dec-08 19:59N 40°42' W 074°01'1 1.1
2017-Dec-08 19:31N 40°43' W 074°02'1 2.3
2017-Dec-08 18:59N 40°42' W 074°00'3 6.8
2017-Dec-08 18:30N 40°46' W 074°00'3 7.0
2017-Dec-08 18:00N 40°42' W 073°60'2 4.0
2017-Dec-08 17:30N 40°44' W 074°01'3 5.3
2017-Dec-08 17:00N 40°41' W 074°02'1 2.2
2017-Dec-08 16:30N 40°42' W 074°01'1 2.8
2017-Dec-08 16:00N 40°44' W 074°01'2 2.9
2017-Dec-08 15:26N 40°42' W 074°00'3 7.5
2017-Dec-08 15:00N 40°46' W 074°00'5 2.0
2017-Dec-08 12:17N 40°40' W 074°01'0 0.0
2017-Dec-07 23:54N 40°40' W 074°01'2 4.7
2017-Dec-07 23:31N 40°42' W 074°01'1 1.1
2017-Dec-07 23:00N 40°43' W 074°02'1 2.2
2017-Dec-07 22:29N 40°42' W 074°00'3 7.2
2017-Dec-07 22:00N 40°46' W 074°00'4 7.1
2017-Dec-07 21:30N 40°42' W 073°60'2 3.1
2017-Dec-07 21:01N 40°43' W 074°01'2 4.6
2017-Dec-07 20:30N 40°41' W 074°03'2 3.0
2017-Dec-07 20:00N 40°42' W 074°01'1 1.7
2017-Dec-07 19:30N 40°42' W 074°02'2 3.7
2017-Dec-07 18:58N 40°42' W 073°60'3 7.2
2017-Dec-07 18:31N 40°46' W 074°00'3 6.8
2017-Dec-07 18:00N 40°42' W 073°60'3 6.5
2017-Dec-07 17:29N 40°45' W 074°01'4 7.7
2017-Dec-07 17:00N 40°42' W 074°01'2 4.6
2017-Dec-07 16:30N 40°44' W 074°01'3 5.7
2017-Dec-07 16:00N 40°41' W 074°02'1 2.5
2017-Dec-07 15:30N 40°42' W 074°01'1 1.1
2017-Dec-07 15:00N 40°42' W 074°02'2 0.1
2017-Dec-07 01:30N 40°40' W 074°01'5 6.6
2017-Dec-07 00:49N 40°44' W 073°58'618.7
2017-Dec-07 00:30N 40°39' W 074°02'611.1
2017-Dec-06 23:57N 40°44' W 073°58'612.8
2017-Dec-06 23:30N 40°39' W 074°02'4 9.0
2017-Dec-06 23:00N 40°43' W 073°58'4 7.1
2017-Dec-06 22:30N 40°40' W 074°01'3 5.6
2017-Dec-06 22:00N 40°42' W 073°59'4 8.1
2017-Dec-06 21:31N 40°39' W 074°02'  
2017-Dec-03 20:40N 40°40' W 074°01'1 6.9
2017-Dec-03 20:30N 40°41' W 074°01'3 5.4
2017-Dec-03 20:00N 40°44' W 074°01'1 2.8
2017-Dec-03 19:30N 40°43' W 074°02'1 2.1
2017-Dec-03 18:57N 40°42' W 074°00'3 7.6
2017-Dec-03 18:30N 40°46' W 074°00'3 6.8
2017-Dec-03 17:59N 40°42' W 073°60'3 5.1
2017-Dec-03 17:30N 40°45' W 074°01'4 7.0
2017-Dec-03 16:59N 40°41' W 074°03'1 3.1
2017-Dec-03 16:30N 40°42' W 074°01'1 2.6
2017-Dec-03 16:01N 40°44' W 074°01'2 3.0
2017-Dec-03 15:30N 40°42' W 074°00'3 6.8
2017-Dec-03 15:00N 40°46' W 074°00'5 0.3
2017-Dec-02 23:23N 40°40' W 074°01'2 5.6
2017-Dec-02 23:00N 40°42' W 074°00'2 4.0
2017-Dec-02 22:30N 40°41' W 074°02'2 2.3
2017-Dec-02 21:36N 40°42' W 074°00'1 5.4
2017-Dec-02 21:29N 40°42' W 074°01'1 1.1
2017-Dec-02 20:58N 40°42' W 074°00'1 1.6
2017-Dec-02 20:30N 40°42' W 074°01'1 2.3
2017-Dec-02 20:00N 40°41' W 074°01'1 2.3
2017-Dec-02 19:30N 40°41' W 074°02'2 4.1
2017-Dec-02 19:00N 40°42' W 074°00'0 0.0
2017-Dec-02 18:29N 40°42' W 074°00'2 4.7
2017-Dec-02 18:00N 40°41' W 074°03'2 4.2
2017-Dec-02 17:28N 40°42' W 074°00'1 2.1
2017-Dec-02 16:58N 40°42' W 073°59'3 5.6
2017-Dec-02 16:30N 40°42' W 074°02'1 2.5
2017-Dec-02 16:00N 40°42' W 074°00'1 0.0
2017-Dec-01 01:51N 40°40' W 074°01'2 5.7
2017-Dec-01 01:29N 40°42' W 074°00'1 3.0
2017-Dec-01 01:00N 40°42' W 074°02'1 2.8
2017-Dec-01 00:29N 40°42' W 074°00'0 0.0
2017-Dec-01 00:00N 40°42' W 074°00'1 1.5
2017-Nov-30 23:30N 40°42' W 074°01'2 3.2
2017-Nov-30 23:00N 40°44' W 074°01'2 3.1
2017-Nov-30 22:23N 40°42' W 074°01'4 9.9
2017-Nov-30 22:00N 40°46' W 074°00'  

Dump ship's entire track history